Kinnear, Wyoming
Current Conditions -  °F | °C
As of 12:53 PM on Monday 22 Dec 2014 (Local Time) from KRIW Reporting Station
Clear Clear  
Wind Chill: 25°   Ceiling: Unl
Heat Index: 30°   Visibility: 10mi
Dew Point: 25°   Wind: 5mph
Humidity: 82%   Direction: 220°SW
Pressure: 29.79"   Gusts: NA
Location:  43.15°N, 108.68°W
Report Text: KRIW 221953Z AUTO 22004KT 10SM CLR M01/M04 A2979 RMK AO2 SLP106 T10111039
Loading
Personal Weather Stations






























Interactive Weather Map New forecast layout! Learn more

10-Day Weather Forecast

Advertisements
Track Severe Weather on mobile